createdAt,value
2022-11-05T16:57:31.786Z,14.80
2022-11-05T17:00:01.185Z,14.84
2022-11-05T17:02:29.534Z,14.85
2022-11-05T17:04:57.851Z,14.87
2022-11-05T17:07:26.282Z,14.96
2022-11-05T17:09:54.500Z,15.01
2022-11-05T17:12:22.773Z,15.02
2022-11-05T17:14:50.983Z,14.95
2022-11-05T17:17:19.121Z,14.84
2022-11-05T17:19:47.847Z,14.75
2022-11-05T17:22:15.973Z,14.71
2022-11-05T17:24:44.346Z,14.64
2022-11-05T17:27:12.559Z,14.60
2022-11-05T17:29:40.582Z,14.53
2022-11-05T17:32:08.847Z,14.50
2022-11-05T17:34:37.016Z,14.46
2022-11-05T17:37:05.183Z,14.41
2022-11-05T17:39:33.522Z,14.36
2022-11-05T17:42:01.876Z,14.34
2022-11-05T17:44:30.001Z,14.31
2022-11-05T17:46:58.661Z,14.26
2022-11-05T17:49:27.030Z,14.19
2022-11-05T17:51:55.358Z,14.05
2022-11-05T17:54:23.739Z,14.00
2022-11-05T17:56:52.017Z,13.93
2022-11-05T17:59:20.213Z,13.86
2022-11-05T18:01:48.341Z,13.79
2022-11-05T18:04:17.018Z,13.75
2022-11-05T18:06:44.976Z,13.70
2022-11-05T18:09:14.206Z,13.60
2022-11-05T18:11:43.249Z,13.52
2022-11-05T18:14:11.816Z,13.45
2022-11-05T18:16:40.696Z,13.24
2022-11-05T18:19:09.306Z,13.14
2022-11-05T18:21:37.597Z,13.16
2022-11-05T18:24:06.925Z,13.16
2022-11-05T18:26:35.416Z,13.15
2022-11-05T18:29:08.896Z,13.18
2022-11-05T18:31:37.186Z,13.17
2022-11-05T18:34:05.401Z,13.13
2022-11-05T18:36:34.231Z,13.11
2022-11-05T18:39:04.452Z,13.07
2022-11-05T18:41:33.286Z,13.00
2022-11-05T18:44:03.530Z,12.93
2022-11-05T18:49:21.446Z,12.67
2022-11-05T18:51:50.105Z,12.62
2022-11-05T18:54:18.172Z,12.58
2022-11-05T18:56:47.178Z,12.49
2022-11-05T19:02:09.781Z,12.53
2022-11-05T19:04:39.843Z,12.51
2022-11-05T19:07:08.838Z,12.46
2022-11-05T19:09:38.758Z,12.38
2022-11-05T19:12:08.541Z,12.30
2022-11-05T19:14:37.318Z,12.25
2022-11-05T19:17:07.548Z,12.12
2022-11-05T19:19:36.176Z,12.08
2022-11-05T19:22:04.572Z,12.02
2022-11-05T19:24:32.846Z,11.98
2022-11-05T19:27:01.862Z,11.98
2022-11-05T19:29:30.237Z,11.96
2022-11-05T19:31:58.612Z,11.94
2022-11-05T19:34:27.236Z,11.89
2022-11-05T19:36:55.553Z,11.88
2022-11-05T19:39:23.836Z,11.84
2022-11-05T19:41:52.822Z,11.79
2022-11-05T19:44:24.988Z,11.73
2022-11-05T19:46:53.815Z,11.68
2022-11-05T19:49:22.968Z,11.63
2022-11-05T19:51:52.057Z,11.55
2022-11-05T19:54:20.517Z,11.51
2022-11-05T19:56:50.841Z,11.48
2022-11-05T19:59:20.087Z,11.45
2022-11-05T20:01:48.816Z,11.42
2022-11-05T20:04:17.366Z,11.41
2022-11-05T20:06:46.252Z,11.36
2022-11-05T20:09:21.557Z,11.32
2022-11-05T20:11:55.076Z,11.21
2022-11-05T20:14:25.548Z,11.16
2022-11-05T20:16:54.196Z,11.12
2022-11-05T20:19:23.799Z,11.13
2022-11-05T20:21:52.328Z,11.16
2022-11-05T20:24:25.336Z,11.16
2022-11-05T20:26:56.227Z,11.11
2022-11-05T20:29:33.664Z,11.05
2022-11-05T20:32:02.995Z,11.01
2022-11-05T20:34:33.032Z,10.97
2022-11-05T20:37:02.452Z,10.97
2022-11-05T20:39:31.617Z,10.92
2022-11-05T20:42:03.156Z,10.91
2022-11-05T20:44:31.995Z,10.82
2022-11-05T20:47:00.610Z,10.69
2022-11-05T20:49:34.881Z,10.67
2022-11-05T20:52:03.822Z,10.73
2022-11-05T20:54:32.172Z,10.75
2022-11-05T20:57:00.442Z,10.76
2022-11-05T20:59:29.132Z,10.76
2022-11-05T21:01:58.083Z,10.73
2022-11-05T21:04:27.307Z,10.78
2022-11-05T21:06:59.095Z,10.73
2022-11-05T21:09:27.286Z,10.69
2022-11-05T21:12:13.310Z,10.61
2022-11-05T21:14:43.255Z,10.49
2022-11-05T21:17:12.370Z,10.37
2022-11-05T21:19:40.665Z,10.29
2022-11-05T21:22:09.025Z,10.26
2022-11-05T21:24:37.849Z,10.28
2022-11-05T21:27:06.481Z,10.26
2022-11-05T21:29:34.581Z,10.26
2022-11-05T21:32:02.861Z,10.27
2022-11-05T21:34:31.239Z,10.25
2022-11-05T21:36:59.795Z,10.24
2022-11-05T21:39:28.195Z,10.20
2022-11-05T21:41:56.927Z,10.18
2022-11-05T21:44:25.619Z,10.15
2022-11-05T21:46:57.973Z,10.10
2022-11-05T21:49:26.325Z,10.05
2022-11-05T21:52:13.241Z,9.98
2022-11-05T21:55:00.217Z,9.96
2022-11-05T21:57:46.898Z,9.94
2022-11-05T22:00:15.231Z,9.94
2022-11-05T22:02:43.533Z,9.95
2022-11-05T22:05:12.087Z,9.95
2022-11-05T22:07:40.365Z,9.92
2022-11-05T22:10:15.798Z,9.91
2022-11-05T22:12:45.653Z,9.93
2022-11-05T22:15:14.553Z,9.92
2022-11-05T22:17:46.952Z,9.89
2022-11-05T22:20:19.335Z,9.82
2022-11-05T22:22:47.501Z,9.79
2022-11-05T22:25:16.827Z,9.78
2022-11-05T22:27:45.592Z,9.72
2022-11-05T22:30:14.996Z,9.68
2022-11-05T22:32:43.220Z,9.63
2022-11-05T22:35:11.926Z,9.60
2022-11-05T22:37:40.530Z,9.61
2022-11-05T22:40:10.180Z,9.60
2022-11-05T22:42:38.603Z,9.60
2022-11-05T22:45:07.653Z,9.62
2022-11-05T22:47:36.423Z,9.61
2022-11-05T22:50:06.341Z,9.59
2022-11-05T22:52:35.015Z,9.57
2022-11-05T22:55:05.533Z,9.56
2022-11-05T22:57:34.056Z,9.55
2022-11-05T23:00:02.270Z,9.55
2022-11-05T23:02:30.868Z,9.49
2022-11-05T23:04:59.108Z,9.40
2022-11-05T23:07:45.656Z,9.39
2022-11-05T23:10:32.457Z,9.43
2022-11-05T23:13:00.701Z,9.39
2022-11-05T23:15:47.061Z,9.36
2022-11-05T23:18:34.071Z,9.28
2022-11-05T23:21:23.190Z,9.26
2022-11-05T23:24:07.196Z,9.26
2022-11-05T23:26:50.758Z,9.24
2022-11-05T23:29:25.215Z,9.26
2022-11-05T23:32:12.678Z,9.28
2022-11-05T23:34:41.243Z,9.24
2022-11-05T23:37:28.701Z,9.21
2022-11-05T23:39:57.254Z,9.19
2022-11-05T23:42:44.238Z,9.15
2022-11-05T23:45:31.643Z,9.08
2022-11-05T23:48:19.302Z,9.07
2022-11-05T23:50:56.461Z,9.03
2022-11-05T23:53:25.467Z,9.02
2022-11-05T23:55:54.271Z,8.98
2022-11-05T23:58:22.596Z,8.87
